createdAt,value
2023-02-25T00:02:18.153Z,13.01
2023-02-25T00:04:44.884Z,13.04
2023-02-25T00:07:11.543Z,13.07
2023-02-25T00:09:38.191Z,13.00
2023-02-25T00:12:04.848Z,13.04
2023-02-25T00:14:31.514Z,13.05
2023-02-25T00:16:58.243Z,13.04
2023-02-25T00:19:24.961Z,13.00
2023-02-25T00:21:51.830Z,12.98
2023-02-25T00:24:18.479Z,13.02
2023-02-25T00:26:45.129Z,12.98
2023-02-25T00:29:11.789Z,12.98
2023-02-25T00:31:38.561Z,13.01
2023-02-25T00:34:05.605Z,12.98
2023-02-25T00:36:32.208Z,12.98
2023-02-25T00:38:59.062Z,12.98
2023-02-25T00:41:25.723Z,12.97
2023-02-25T00:43:52.587Z,12.98
2023-02-25T00:46:19.552Z,12.98
2023-02-25T00:48:46.264Z,12.97
2023-02-25T00:51:12.938Z,12.94
2023-02-25T00:53:39.604Z,12.97
2023-02-25T00:56:06.255Z,12.95
2023-02-25T00:58:32.907Z,12.92
2023-02-25T01:00:59.778Z,12.95
2023-02-25T01:03:26.432Z,12.95
2023-02-25T01:05:53.081Z,12.94
2023-02-25T01:08:19.863Z,12.94
2023-02-25T01:10:46.719Z,12.92
2023-02-25T01:13:13.549Z,12.92
2023-02-25T01:15:40.222Z,12.95
2023-02-25T01:18:06.873Z,12.91
2023-02-25T01:20:33.531Z,12.91
2023-02-25T01:23:00.200Z,12.92
2023-02-25T01:25:26.853Z,12.92
2023-02-25T01:27:53.501Z,12.90
2023-02-25T01:30:20.147Z,12.91
2023-02-25T01:32:46.845Z,12.91
2023-02-25T01:35:13.534Z,12.88
2023-02-25T01:37:41.281Z,12.87
2023-02-25T01:40:07.926Z,12.90
2023-02-25T01:42:34.589Z,12.85
2023-02-25T01:45:01.257Z,12.87
2023-02-25T01:47:27.907Z,12.85
2023-02-25T01:49:54.556Z,12.87
2023-02-25T01:52:21.432Z,12.88
2023-02-25T01:54:48.098Z,12.90
2023-02-25T01:57:14.755Z,12.87
2023-02-25T01:59:41.618Z,12.84
2023-02-25T02:02:10.836Z,12.87
2023-02-25T02:04:37.538Z,12.84
2023-02-25T02:07:04.211Z,12.84
2023-02-25T02:09:31.091Z,12.87
2023-02-25T02:11:57.741Z,12.83
2023-02-25T02:14:24.400Z,12.81
2023-02-25T02:16:51.049Z,12.83
2023-02-25T02:19:17.708Z,12.83
2023-02-25T02:21:44.356Z,12.80
2023-02-25T02:24:11.005Z,12.81
2023-02-25T02:26:37.646Z,12.83
2023-02-25T02:29:04.336Z,12.80
2023-02-25T02:31:31.055Z,12.80
2023-02-25T02:34:07.022Z,12.80
2023-02-25T02:36:33.663Z,12.79
2023-02-25T02:39:00.328Z,12.81
2023-02-25T02:41:26.984Z,12.80
2023-02-25T02:43:53.651Z,12.79
2023-02-25T02:46:20.582Z,12.80
2023-02-25T02:48:47.520Z,12.77
2023-02-25T02:51:14.202Z,12.76
2023-02-25T02:53:40.856Z,12.76
2023-02-25T02:56:07.476Z,12.76
2023-02-25T02:58:34.093Z,12.77
2023-02-25T03:01:01.515Z,12.79
2023-02-25T03:03:28.142Z,12.73
2023-02-25T03:05:55.003Z,12.76
2023-02-25T03:08:21.638Z,12.76
2023-02-25T03:10:48.478Z,12.74
2023-02-25T03:13:15.559Z,12.74
2023-02-25T03:15:42.176Z,12.73
2023-02-25T03:18:09.023Z,12.70
2023-02-25T03:20:35.650Z,12.73
2023-02-25T03:23:02.504Z,12.73
2023-02-25T03:25:29.189Z,12.74
2023-02-25T03:27:56.609Z,12.73
2023-02-25T03:30:23.235Z,12.71
2023-02-25T03:32:50.165Z,12.70
2023-02-25T03:35:17.061Z,12.71
2023-02-25T03:37:43.701Z,12.73
2023-02-25T03:40:10.340Z,12.71
2023-02-25T03:42:36.972Z,12.68
2023-02-25T03:45:03.622Z,12.68
2023-02-25T03:47:30.288Z,12.67
2023-02-25T03:49:56.923Z,12.73
2023-02-25T03:52:23.578Z,12.71
2023-02-25T03:54:50.416Z,12.67
2023-02-25T03:57:17.269Z,12.67
2023-02-25T03:59:43.905Z,12.68
2023-02-25T04:02:10.782Z,12.67
2023-02-25T04:04:37.517Z,12.65
2023-02-25T04:07:04.402Z,12.67
2023-02-25T04:09:31.743Z,12.64
2023-02-25T04:11:58.372Z,12.67
2023-02-25T04:14:25.021Z,12.68
2023-02-25T04:16:51.656Z,12.67
2023-02-25T04:19:18.504Z,12.64
2023-02-25T04:21:45.145Z,12.67
2023-02-25T04:24:12.009Z,12.64
2023-02-25T04:26:38.660Z,12.63
2023-02-25T04:29:05.770Z,12.64
2023-02-25T04:31:32.583Z,12.61
2023-02-25T04:33:59.351Z,12.61
2023-02-25T04:36:26.001Z,12.61
2023-02-25T04:38:55.492Z,12.59
2023-02-25T04:41:22.343Z,12.63
2023-02-25T04:43:48.961Z,12.60
2023-02-25T04:46:15.630Z,12.59
2023-02-25T04:51:30.086Z,12.60
2023-02-25T04:53:56.738Z,12.60
2023-02-25T04:56:23.807Z,12.57
2023-02-25T04:58:50.584Z,12.59
2023-02-25T05:01:17.225Z,12.59
2023-02-25T05:03:43.890Z,12.59
2023-02-25T05:06:10.540Z,12.57
2023-02-25T05:08:37.171Z,12.59
2023-02-25T05:11:03.790Z,12.56
2023-02-25T05:13:30.406Z,12.56
2023-02-25T05:15:57.107Z,12.59
2023-02-25T05:18:23.738Z,12.56
2023-02-25T05:20:50.360Z,12.57
2023-02-25T05:23:16.981Z,12.56
2023-02-25T05:25:43.626Z,12.54
2023-02-25T05:28:10.268Z,12.53
2023-02-25T05:30:36.887Z,12.54
2023-02-25T05:33:03.569Z,12.51
2023-02-25T05:35:30.269Z,12.56
2023-02-25T05:37:56.916Z,12.53
2023-02-25T05:40:23.543Z,12.56
2023-02-25T05:42:50.196Z,12.59
2023-02-25T05:45:17.067Z,12.56
2023-02-25T05:47:43.695Z,12.50
2023-02-25T05:50:10.334Z,12.51
2023-02-25T05:52:36.969Z,12.54
2023-02-25T05:55:03.589Z,12.50
2023-02-25T05:57:30.194Z,12.51
2023-02-25T05:59:56.829Z,12.49
2023-02-25T06:02:23.501Z,12.47
2023-02-25T06:04:50.182Z,12.53
2023-02-25T06:07:16.837Z,12.50
2023-02-25T06:09:43.472Z,12.49
2023-02-25T06:12:10.110Z,12.49
2023-02-25T06:14:36.744Z,12.49
2023-02-25T06:17:03.400Z,12.47
2023-02-25T06:19:30.037Z,12.51
2023-02-25T06:21:56.669Z,12.46
2023-02-25T06:24:23.291Z,12.47
2023-02-25T06:26:49.961Z,12.47
2023-02-25T06:29:16.606Z,12.47
2023-02-25T06:31:43.362Z,12.46
2023-02-25T06:34:10.144Z,12.46
2023-02-25T06:36:36.780Z,12.43
2023-02-25T06:39:03.419Z,12.49
2023-02-25T06:41:30.045Z,12.43
2023-02-25T06:43:56.663Z,12.44
2023-02-25T06:46:23.889Z,12.46
2023-02-25T06:48:50.680Z,12.44
2023-02-25T06:51:17.554Z,12.43
2023-02-25T06:53:44.194Z,12.43
2023-02-25T06:56:11.011Z,12.41
2023-02-25T06:58:37.663Z,12.44
2023-02-25T07:01:04.555Z,12.43
2023-02-25T07:03:31.173Z,12.41
2023-02-25T07:05:58.003Z,12.43
2023-02-25T07:08:24.652Z,12.40
2023-02-25T07:10:51.508Z,12.43
2023-02-25T07:13:18.147Z,12.41
2023-02-25T07:15:44.853Z,12.40
2023-02-25T07:18:11.540Z,12.40
2023-02-25T07:20:38.170Z,12.36
2023-02-25T07:23:04.802Z,12.39
2023-02-25T07:25:31.484Z,12.40
2023-02-25T07:27:58.402Z,12.36
2023-02-25T07:30:25.039Z,12.39
2023-02-25T07:32:51.686Z,12.37
2023-02-25T07:35:18.338Z,12.39
2023-02-25T07:37:44.988Z,12.37
2023-02-25T07:40:11.627Z,12.34
2023-02-25T07:42:38.269Z,12.39
2023-02-25T07:45:04.941Z,12.37
2023-02-25T07:47:31.592Z,12.33
2023-02-25T07:49:58.431Z,12.36
2023-02-25T07:52:25.069Z,12.33
2023-02-25T07:54:51.712Z,12.32
2023-02-25T07:57:18.574Z,12.36
2023-02-25T07:59:45.233Z,12.33
2023-02-25T08:02:12.173Z,12.34
2023-02-25T08:04:38.911Z,12.33
2023-02-25T08:07:05.569Z,12.32
2023-02-25T08:09:32.210Z,12.33
2023-02-25T08:11:58.880Z,12.33
2023-02-25T08:14:25.519Z,12.33
2023-02-25T08:16:52.156Z,12.34
2023-02-25T08:19:18.992Z,12.32
2023-02-25T08:21:45.634Z,12.33
2023-02-25T08:24:12.287Z,12.33
2023-02-25T08:26:38.900Z,12.34
2023-02-25T08:29:05.524Z,12.34
2023-02-25T08:31:32.245Z,12.33
2023-02-25T08:33:58.974Z,12.36
2023-02-25T08:36:25.606Z,12.37
2023-02-25T08:38:52.256Z,12.34
2023-02-25T08:41:19.090Z,12.32
2023-02-25T08:43:45.720Z,12.34
2023-02-25T08:46:12.376Z,12.33
2023-02-25T08:48:39.000Z,12.34
2023-02-25T08:51:05.629Z,12.36
2023-02-25T08:53:32.239Z,12.33
2023-02-25T08:55:59.580Z,12.33
2023-02-25T08:58:26.237Z,12.34
2023-02-25T09:00:52.987Z,12.36
2023-02-25T09:03:19.928Z,12.36
2023-02-25T09:05:46.578Z,12.33
2023-02-25T09:08:13.219Z,12.36
2023-02-25T09:10:49.909Z,12.34
2023-02-25T09:13:17.437Z,12.34
2023-02-25T09:15:44.107Z,12.36
2023-02-25T09:18:10.752Z,12.34
2023-02-25T09:20:37.403Z,12.39
2023-02-25T09:23:04.021Z,12.34
2023-02-25T09:25:30.657Z,12.34
2023-02-25T09:27:57.508Z,12.36
2023-02-25T09:30:24.237Z,12.36
2023-02-25T09:32:51.138Z,12.33
2023-02-25T09:35:17.840Z,12.36
2023-02-25T09:37:44.466Z,12.33
2023-02-25T09:40:11.096Z,12.39
2023-02-25T09:42:37.725Z,12.36
2023-02-25T09:45:04.351Z,12.34
2023-02-25T09:47:31.020Z,12.36
2023-02-25T09:49:57.684Z,12.36
2023-02-25T09:52:24.318Z,12.37
2023-02-25T09:54:50.958Z,12.40
2023-02-25T09:57:17.805Z,12.39
2023-02-25T09:59:44.422Z,12.40
2023-02-25T10:02:11.162Z,12.43
2023-02-25T10:04:37.907Z,12.43
2023-02-25T10:07:04.534Z,12.43
2023-02-25T10:09:31.174Z,12.43
2023-02-25T10:11:57.796Z,12.44
2023-02-25T10:14:24.442Z,12.46
2023-02-25T10:16:51.124Z,12.49
2023-02-25T10:19:17.795Z,12.49
2023-02-25T10:21:44.418Z,12.44
2023-02-25T10:24:11.026Z,12.46
2023-02-25T10:26:37.641Z,12.44
2023-02-25T10:29:04.270Z,12.44
2023-02-25T10:31:31.093Z,12.46
2023-02-25T10:33:57.837Z,12.47
2023-02-25T10:36:24.507Z,12.50
2023-02-25T10:38:51.161Z,12.54
2023-02-25T10:41:18.001Z,12.56
2023-02-25T10:43:44.637Z,12.51
2023-02-25T10:46:11.285Z,12.54
2023-02-25T10:48:37.958Z,12.59
2023-02-25T10:51:04.586Z,12.53
2023-02-25T10:53:31.195Z,12.56
2023-02-25T10:55:57.809Z,12.53
2023-02-25T10:58:24.428Z,12.59
2023-02-25T11:00:51.049Z,12.59
2023-02-25T11:03:17.892Z,12.57
2023-02-25T11:05:44.518Z,12.57
2023-02-25T11:08:11.132Z,12.59
2023-02-25T11:10:37.768Z,12.60
2023-02-25T11:13:04.419Z,12.63
2023-02-25T11:15:44.446Z,12.64
2023-02-25T11:18:11.698Z,12.64
2023-02-25T11:20:38.313Z,12.67
2023-02-25T11:23:04.977Z,12.68
2023-02-25T11:25:31.628Z,12.65
2023-02-25T11:27:58.269Z,12.68
2023-02-25T11:30:24.890Z,12.71
2023-02-25T11:32:51.547Z,12.70
2023-02-25T11:35:18.204Z,12.74
2023-02-25T11:37:45.754Z,12.71
2023-02-25T11:40:12.440Z,12.71
2023-02-25T11:42:39.063Z,12.77
2023-02-25T11:45:05.687Z,12.76
2023-02-25T11:47:32.316Z,12.74
2023-02-25T11:49:58.941Z,12.76
2023-02-25T11:52:25.560Z,12.76
2023-02-25T11:54:52.390Z,12.74
2023-02-25T11:57:19.024Z,12.76
2023-02-25T11:59:45.655Z,12.74
2023-02-25T12:02:12.292Z,12.74
2023-02-25T12:04:38.921Z,12.76
2023-02-25T12:07:05.662Z,12.77
2023-02-25T12:09:32.274Z,12.79
2023-02-25T12:11:58.934Z,12.81
2023-02-25T12:14:25.560Z,12.79
2023-02-25T12:16:52.180Z,12.79
2023-02-25T12:19:18.803Z,12.81
2023-02-25T12:21:45.420Z,12.83
2023-02-25T12:24:12.048Z,12.85
2023-02-25T12:26:38.685Z,12.90
2023-02-25T12:29:05.323Z,12.87
2023-02-25T12:31:32.183Z,12.87
2023-02-25T12:33:58.844Z,12.92
2023-02-25T12:36:25.466Z,12.91
2023-02-25T12:38:52.081Z,12.92
2023-02-25T12:41:18.702Z,12.88
2023-02-25T12:43:45.537Z,12.90
2023-02-25T12:46:12.474Z,12.88
2023-02-25T12:48:39.142Z,12.91
2023-02-25T12:51:05.766Z,12.84
2023-02-25T12:53:32.396Z,12.87
2023-02-25T12:55:59.045Z,12.87
2023-02-25T12:58:25.669Z,12.87
2023-02-25T13:00:52.315Z,12.90
2023-02-25T13:03:18.939Z,12.88
2023-02-25T13:05:45.559Z,12.83
2023-02-25T13:08:12.182Z,12.80
2023-02-25T13:10:38.797Z,12.81
2023-02-25T13:13:05.415Z,12.80
2023-02-25T13:15:32.036Z,12.76
2023-02-25T13:17:58.870Z,12.77
2023-02-25T13:20:25.728Z,12.79
2023-02-25T13:22:52.344Z,12.73
2023-02-25T13:25:18.948Z,12.74
2023-02-25T13:27:45.567Z,12.76
2023-02-25T13:30:12.261Z,12.70
2023-02-25T13:32:38.971Z,12.73
2023-02-25T13:35:06.487Z,12.70
2023-02-25T13:37:33.113Z,12.65
2023-02-25T13:39:59.723Z,12.68
2023-02-25T13:42:26.564Z,12.67
2023-02-25T13:44:53.181Z,12.65
2023-02-25T13:47:19.807Z,12.65
2023-02-25T13:49:46.422Z,12.63
2023-02-25T13:52:15.853Z,12.61
2023-02-25T13:54:42.484Z,12.64
2023-02-25T13:57:09.331Z,12.67
2023-02-25T13:59:35.958Z,12.68
2023-02-25T14:02:02.632Z,12.81
2023-02-25T14:04:29.711Z,12.80
2023-02-25T14:06:56.322Z,12.94
2023-02-25T14:09:23.150Z,13.18
2023-02-25T14:11:50.399Z,13.23
2023-02-25T14:14:17.062Z,13.15
2023-02-25T14:16:43.681Z,13.02
2023-02-25T14:19:10.299Z,13.04
2023-02-25T14:21:36.919Z,13.15
2023-02-25T14:24:03.540Z,13.22
2023-02-25T14:26:30.174Z,13.31
2023-02-25T14:28:56.801Z,13.43
2023-02-25T14:31:23.926Z,13.70
2023-02-25T14:33:51.644Z,13.89
2023-02-25T14:36:18.260Z,13.59
2023-02-25T14:38:44.874Z,13.56
2023-02-25T14:41:11.492Z,13.56
2023-02-25T14:43:38.111Z,13.38
2023-02-25T14:46:04.766Z,13.31
2023-02-25T14:48:31.411Z,13.25
2023-02-25T14:50:58.034Z,13.32
2023-02-25T14:53:24.658Z,13.56
2023-02-25T14:55:51.310Z,13.38
2023-02-25T14:58:18.137Z,13.29
2023-02-25T15:00:44.759Z,13.23
2023-02-25T15:03:11.382Z,13.18
2023-02-25T15:05:38.008Z,13.21
2023-02-25T15:08:04.620Z,13.14
2023-02-25T15:10:31.454Z,13.08
2023-02-25T15:12:58.077Z,13.08
2023-02-25T15:15:24.699Z,13.04
2023-02-25T15:17:51.319Z,13.01
2023-02-25T15:20:17.929Z,12.98
2023-02-25T15:22:44.559Z,12.97
2023-02-25T15:25:11.193Z,12.94
2023-02-25T15:27:37.827Z,12.94
2023-02-25T15:30:04.564Z,12.90
2023-02-25T15:32:31.317Z,12.91
2023-02-25T15:34:57.980Z,12.88
2023-02-25T15:37:24.616Z,12.85
2023-02-25T15:39:51.233Z,12.83
2023-02-25T15:42:17.854Z,12.81
2023-02-25T15:44:44.705Z,12.80
2023-02-25T15:47:11.346Z,12.80
2023-02-25T15:49:37.992Z,12.77
2023-02-25T15:52:04.918Z,12.71
2023-02-25T15:54:31.598Z,12.74
2023-02-25T15:56:58.439Z,12.74
2023-02-25T15:59:25.099Z,12.70
2023-02-25T16:01:51.745Z,12.71
2023-02-25T16:04:18.590Z,12.70
2023-02-25T16:06:45.208Z,12.67
2023-02-25T16:09:11.838Z,12.63
2023-02-25T16:11:38.478Z,12.64
2023-02-25T16:14:05.087Z,12.63
2023-02-25T16:16:31.725Z,12.63
2023-02-25T16:18:58.347Z,12.60
2023-02-25T16:21:25.210Z,12.60
2023-02-25T16:23:51.979Z,12.57
2023-02-25T16:26:18.612Z,12.59
2023-02-25T16:28:45.223Z,12.54
2023-02-25T16:31:11.890Z,12.54
2023-02-25T16:33:38.597Z,12.53
2023-02-25T16:36:07.792Z,12.50
2023-02-25T16:38:37.269Z,12.49
2023-02-25T16:41:04.669Z,12.50
2023-02-25T16:43:31.284Z,12.49
2023-02-25T16:45:57.942Z,12.49
2023-02-25T16:48:24.573Z,12.49
2023-02-25T16:50:51.214Z,12.46
2023-02-25T16:53:17.852Z,12.46
2023-02-25T16:55:44.483Z,12.46
2023-02-25T16:58:11.119Z,12.44
2023-02-25T17:00:37.960Z,12.41
2023-02-25T17:03:04.600Z,12.43
2023-02-25T17:05:32.102Z,12.41
2023-02-25T17:07:58.713Z,12.39
2023-02-25T17:10:25.330Z,12.36
2023-02-25T17:12:51.952Z,12.37
2023-02-25T17:15:18.579Z,12.34
2023-02-25T17:17:45.203Z,12.40
2023-02-25T17:20:12.035Z,12.36
2023-02-25T17:22:38.886Z,12.36
2023-02-25T17:25:05.512Z,12.32
2023-02-25T17:27:32.366Z,12.34
2023-02-25T17:29:59.007Z,12.32
2023-02-25T17:32:25.659Z,12.33
2023-02-25T17:34:52.310Z,12.32
2023-02-25T17:37:18.951Z,12.30
2023-02-25T17:39:45.579Z,12.32
2023-02-25T17:42:12.214Z,12.29
2023-02-25T17:44:38.841Z,12.29
2023-02-25T17:47:05.477Z,12.29
2023-02-25T17:49:32.099Z,12.25
2023-02-25T17:51:58.729Z,12.26
2023-02-25T17:54:25.332Z,12.25
2023-02-25T17:56:51.949Z,12.23
2023-02-25T17:59:18.565Z,12.25
2023-02-25T18:01:45.297Z,12.20
2023-02-25T18:04:12.162Z,12.22
2023-02-25T18:06:38.833Z,12.20
2023-02-25T18:09:05.666Z,12.20
2023-02-25T18:11:32.283Z,12.20
2023-02-25T18:13:58.902Z,12.19
2023-02-25T18:16:26.074Z,12.15
2023-02-25T18:18:53.010Z,12.16
2023-02-25T18:21:19.644Z,12.16
2023-02-25T18:23:46.280Z,12.16
2023-02-25T18:26:12.921Z,12.19
2023-02-25T18:31:27.970Z,12.10
2023-02-25T18:33:54.861Z,12.15
2023-02-25T18:36:21.578Z,12.10
2023-02-25T18:38:48.234Z,12.16
2023-02-25T18:41:15.061Z,12.16
2023-02-25T18:43:41.689Z,12.10
2023-02-25T18:46:08.354Z,12.10
2023-02-25T18:48:35.204Z,12.10
2023-02-25T18:51:01.837Z,12.10
2023-02-25T18:53:28.468Z,12.09
2023-02-25T18:55:55.091Z,12.08
2023-02-25T18:58:21.936Z,12.08
2023-02-25T19:00:48.568Z,12.06
2023-02-25T19:03:15.787Z,12.06
2023-02-25T19:05:42.405Z,12.05
2023-02-25T19:08:09.016Z,12.06
2023-02-25T19:10:35.635Z,12.03
2023-02-25T19:13:02.290Z,12.06
2023-02-25T19:15:28.927Z,12.02
2023-02-25T19:17:55.765Z,12.05
2023-02-25T19:20:22.392Z,12.02
2023-02-25T19:22:49.246Z,12.03
2023-02-25T19:25:16.130Z,11.99
2023-02-25T19:27:42.772Z,12.00
2023-02-25T19:30:09.396Z,12.00
2023-02-25T19:32:36.022Z,11.96
2023-02-25T19:35:02.642Z,11.98
2023-02-25T19:37:29.263Z,11.99
2023-02-25T19:39:55.868Z,11.96
2023-02-25T19:42:22.474Z,11.95
2023-02-25T19:44:49.617Z,11.93
2023-02-25T19:47:16.235Z,11.95
2023-02-25T19:49:42.867Z,11.93
2023-02-25T19:52:09.494Z,11.98
2023-02-25T19:54:36.122Z,11.92
2023-02-25T19:57:02.755Z,11.96
2023-02-25T19:59:29.383Z,11.93
2023-02-25T20:01:56.004Z,11.92
2023-02-25T20:04:22.640Z,11.93
2023-02-25T20:06:49.268Z,11.92
2023-02-25T20:09:16.110Z,11.93
2023-02-25T20:11:42.759Z,11.92
2023-02-25T20:14:09.388Z,11.93
2023-02-25T20:16:36.040Z,11.92
2023-02-25T20:19:03.169Z,11.88
2023-02-25T20:21:29.781Z,11.91
2023-02-25T20:23:56.398Z,11.86
2023-02-25T20:26:23.434Z,11.89
2023-02-25T20:28:50.179Z,11.89
2023-02-25T20:31:16.873Z,11.86
2023-02-25T20:33:43.532Z,11.88
2023-02-25T20:36:10.164Z,11.86
2023-02-25T20:38:37.036Z,11.86
2023-02-25T20:41:06.661Z,11.88
2023-02-25T20:43:33.277Z,11.82
2023-02-25T20:46:00.210Z,11.85
2023-02-25T20:48:26.876Z,11.83
2023-02-25T20:50:53.734Z,11.85
2023-02-25T20:53:20.349Z,11.82
2023-02-25T20:55:47.827Z,11.85
2023-02-25T20:58:14.448Z,11.82
2023-02-25T21:00:41.246Z,11.81
2023-02-25T21:03:07.862Z,11.82
2023-02-25T21:05:34.714Z,11.81
2023-02-25T21:08:01.336Z,11.79
2023-02-25T21:10:28.174Z,11.81
2023-02-25T21:12:54.801Z,11.82
2023-02-25T21:15:21.437Z,11.77
2023-02-25T21:17:48.371Z,11.79
2023-02-25T21:20:15.038Z,11.77
2023-02-25T21:22:41.653Z,11.77
2023-02-25T21:25:08.527Z,11.78
2023-02-25T21:27:35.139Z,11.75
2023-02-25T21:30:01.772Z,11.77
2023-02-25T21:32:28.631Z,11.74
2023-02-25T21:34:55.257Z,11.77
2023-02-25T21:37:21.872Z,11.74
2023-02-25T21:39:48.493Z,11.74
2023-02-25T21:42:15.111Z,11.74
2023-02-25T21:44:41.747Z,11.72
2023-02-25T21:47:08.893Z,11.75
2023-02-25T21:49:35.525Z,11.72
2023-02-25T21:52:02.142Z,11.74
2023-02-25T21:54:28.978Z,11.69
2023-02-25T21:56:55.816Z,11.68
2023-02-25T21:59:22.442Z,11.71
2023-02-25T22:01:49.097Z,11.67
2023-02-25T22:04:15.758Z,11.69
2023-02-25T22:06:42.399Z,11.69
2023-02-25T22:09:09.253Z,11.69
2023-02-25T22:11:35.869Z,11.68
2023-02-25T22:14:02.494Z,11.68
2023-02-25T22:16:29.514Z,11.65
2023-02-25T22:18:56.200Z,11.65
2023-02-25T22:21:23.041Z,11.65
2023-02-25T22:23:49.689Z,11.62
2023-02-25T22:26:17.104Z,11.67
2023-02-25T22:28:44.038Z,11.61
2023-02-25T22:31:10.979Z,11.61
2023-02-25T22:33:37.687Z,11.58
2023-02-25T22:36:04.308Z,11.57
2023-02-25T22:38:30.925Z,11.59
2023-02-25T22:40:57.555Z,11.55
2023-02-25T22:43:24.169Z,11.57
2023-02-25T22:45:50.796Z,11.55
2023-02-25T22:48:17.452Z,11.58
2023-02-25T22:50:44.078Z,11.55
2023-02-25T22:53:10.715Z,11.58
2023-02-25T22:55:37.348Z,11.55
2023-02-25T22:58:03.957Z,11.52
2023-02-25T23:00:30.569Z,11.54
2023-02-25T23:02:57.503Z,11.51
2023-02-25T23:05:24.370Z,11.54
2023-02-25T23:07:51.172Z,11.52
2023-02-25T23:10:17.799Z,11.52
2023-02-25T23:12:44.422Z,11.52
2023-02-25T23:15:11.249Z,11.52
2023-02-25T23:17:38.083Z,11.50
2023-02-25T23:20:04.705Z,11.50
2023-02-25T23:22:32.111Z,11.51
2023-02-25T23:24:59.963Z,11.47
2023-02-25T23:27:26.582Z,11.48
2023-02-25T23:29:53.197Z,11.48
2023-02-25T23:32:19.862Z,11.48
2023-02-25T23:34:46.528Z,11.47
2023-02-25T23:37:15.184Z,11.50
2023-02-25T23:39:41.889Z,11.47
2023-02-25T23:42:08.974Z,11.48
2023-02-25T23:44:35.608Z,11.48
2023-02-25T23:47:02.242Z,11.44
2023-02-25T23:49:28.861Z,11.45
2023-02-25T23:51:55.485Z,11.44
2023-02-25T23:54:22.105Z,11.44
2023-02-25T23:56:48.952Z,11.40
2023-02-25T23:59:15.586Z,11.42
